sensor_id;sensor_type;location;lat;lon;timestamp;P1;durP1;ratioP1;P2;durP2;ratioP2
75207;SDS011;63795;55.684;37.864;2023-05-10T00:01:42;20.17;;;9.45;;
75207;SDS011;63795;55.684;37.864;2023-05-10T00:06:43;25.75;;;12.77;;
75207;SDS011;63795;55.684;37.864;2023-05-10T00:11:43;22.98;;;9.20;;
75207;SDS011;63795;55.684;37.864;2023-05-10T00:16:44;24.17;;;12.83;;
75207;SDS011;63795;55.684;37.864;2023-05-10T00:21:44;17.80;;;8.18;;
75207;SDS011;63795;55.684;37.864;2023-05-10T00:26:45;19.80;;;6.97;;
75207;SDS011;63795;55.684;37.864;2023-05-10T00:31:45;18.88;;;8.57;;
75207;SDS011;63795;55.684;37.864;2023-05-10T00:36:45;23.38;;;9.10;;
75207;SDS011;63795;55.684;37.864;2023-05-10T00:41:46;15.07;;;8.48;;
75207;SDS011;63795;55.684;37.864;2023-05-10T00:46:47;16.42;;;7.65;;
75207;SDS011;63795;55.684;37.864;2023-05-10T00:51:48;19.50;;;8.15;;
75207;SDS011;63795;55.684;37.864;2023-05-10T00:56:49;17.27;;;9.38;;
75207;SDS011;63795;55.684;37.864;2023-05-10T01:01:50;18.33;;;7.80;;
75207;SDS011;63795;55.684;37.864;2023-05-10T01:06:52;13.70;;;6.43;;
75207;SDS011;63795;55.684;37.864;2023-05-10T01:11:53;14.60;;;6.53;;
75207;SDS011;63795;55.684;37.864;2023-05-10T01:16:55;17.27;;;5.85;;
75207;SDS011;63795;55.684;37.864;2023-05-10T01:22:05;17.10;;;7.53;;
75207;SDS011;63795;55.684;37.864;2023-05-10T01:43:25;14.73;;;5.63;;
75207;SDS011;63795;55.684;37.864;2023-05-10T01:48:31;15.45;;;5.43;;
75207;SDS011;63795;55.684;37.864;2023-05-10T01:53:33;11.80;;;4.95;;
75207;SDS011;63795;55.684;37.864;2023-05-10T01:58:38;10.80;;;3.78;;
75207;SDS011;63795;55.684;37.864;2023-05-10T02:03:44;10.25;;;3.65;;
75207;SDS011;63795;55.684;37.864;2023-05-10T02:08:45;10.65;;;4.20;;
75207;SDS011;63795;55.684;37.864;2023-05-10T02:13:47;9.10;;;4.72;;
75207;SDS011;63795;55.684;37.864;2023-05-10T02:18:50;8.85;;;3.05;;
75207;SDS011;63795;55.684;37.864;2023-05-10T02:23:52;11.35;;;3.72;;
75207;SDS011;63795;55.684;37.864;2023-05-10T02:28:55;7.60;;;3.60;;
75207;SDS011;63795;55.684;37.864;2023-05-10T02:33:57;11.32;;;4.88;;
75207;SDS011;63795;55.684;37.864;2023-05-10T02:44:01;11.73;;;3.53;;
75207;SDS011;63795;55.684;37.864;2023-05-10T02:49:06;12.65;;;2.20;;
75207;SDS011;63795;55.684;37.864;2023-05-10T02:54:10;8.15;;;2.65;;
75207;SDS011;63795;55.684;37.864;2023-05-10T02:59:12;9.00;;;3.70;;
75207;SDS011;63795;55.684;37.864;2023-05-10T03:04:13;11.48;;;3.17;;
75207;SDS011;63795;55.684;37.864;2023-05-10T03:09:13;10.90;;;1.88;;
75207;SDS011;63795;55.684;37.864;2023-05-10T03:19:24;6.68;;;2.13;;
75207;SDS011;63795;55.684;37.864;2023-05-10T03:24:30;6.22;;;2.80;;
75207;SDS011;63795;55.684;37.864;2023-05-10T03:29:32;7.78;;;2.63;;
75207;SDS011;63795;55.684;37.864;2023-05-10T03:34:33;5.63;;;0.88;;
75207;SDS011;63795;55.684;37.864;2023-05-10T03:39:34;11.97;;;2.80;;
75207;SDS011;63795;55.684;37.864;2023-05-10T03:44:34;7.20;;;3.25;;
75207;SDS011;63795;55.684;37.864;2023-05-10T03:49:35;5.72;;;2.15;;
75207;SDS011;63795;55.684;37.864;2023-05-10T03:54:35;5.85;;;2.17;;
75207;SDS011;63795;55.684;37.864;2023-05-10T03:59:36;7.35;;;1.92;;
75207;SDS011;63795;55.684;37.864;2023-05-10T04:04:36;7.28;;;0.90;;
75207;SDS011;63795;55.684;37.864;2023-05-10T04:09:37;17.52;;;2.90;;
75207;SDS011;63795;55.684;37.864;2023-05-10T04:14:37;6.65;;;3.13;;
75207;SDS011;63795;55.684;37.864;2023-05-10T04:19:38;5.50;;;2.57;;
75207;SDS011;63795;55.684;37.864;2023-05-10T04:24:38;5.88;;;1.25;;
75207;SDS011;63795;55.684;37.864;2023-05-10T04:29:39;11.90;;;1.77;;
75207;SDS011;63795;55.684;37.864;2023-05-10T04:34:39;14.05;;;2.35;;
75207;SDS011;63795;55.684;37.864;2023-05-10T04:39:40;7.43;;;2.10;;
75207;SDS011;63795;55.684;37.864;2023-05-10T04:44:40;5.70;;;1.83;;
75207;SDS011;63795;55.684;37.864;2023-05-10T04:49:41;10.18;;;2.30;;
75207;SDS011;63795;55.684;37.864;2023-05-10T04:54:41;10.05;;;5.13;;
75207;SDS011;63795;55.684;37.864;2023-05-10T04:59:42;12.13;;;2.50;;
75207;SDS011;63795;55.684;37.864;2023-05-10T05:04:42;6.55;;;1.60;;
75207;SDS011;63795;55.684;37.864;2023-05-10T05:09:43;6.80;;;1.37;;
75207;SDS011;63795;55.684;37.864;2023-05-10T05:14:43;4.63;;;1.65;;
75207;SDS011;63795;55.684;37.864;2023-05-10T05:19:44;5.72;;;1.38;;
75207;SDS011;63795;55.684;37.864;2023-05-10T05:24:44;16.43;;;3.03;;
75207;SDS011;63795;55.684;37.864;2023-05-10T05:29:45;8.85;;;1.58;;
75207;SDS011;63795;55.684;37.864;2023-05-10T05:34:45;16.45;;;1.63;;
75207;SDS011;63795;55.684;37.864;2023-05-10T05:39:46;4.75;;;0.88;;
75207;SDS011;63795;55.684;37.864;2023-05-10T05:44:47;7.82;;;1.73;;
75207;SDS011;63795;55.684;37.864;2023-05-10T05:49:47;7.00;;;1.40;;
75207;SDS011;63795;55.684;37.864;2023-05-10T05:54:48;3.47;;;0.97;;
75207;SDS011;63795;55.684;37.864;2023-05-10T05:59:51;3.70;;;0.77;;
75207;SDS011;63795;55.684;37.864;2023-05-10T06:04:52;7.15;;;0.70;;
75207;SDS011;63795;55.684;37.864;2023-05-10T06:09:52;5.13;;;0.70;;
75207;SDS011;63795;55.684;37.864;2023-05-10T06:14:53;7.22;;;0.93;;
75207;SDS011;63795;55.684;37.864;2023-05-10T06:19:53;4.43;;;0.70;;
75207;SDS011;63795;55.684;37.864;2023-05-10T06:24:54;5.07;;;0.85;;
75207;SDS011;63795;55.684;37.864;2023-05-10T06:29:54;2.27;;;0.20;;
75207;SDS011;63795;55.684;37.864;2023-05-10T06:34:55;2.55;;;0.65;;
75207;SDS011;63795;55.684;37.864;2023-05-10T06:39:55;2.83;;;1.27;;
75207;SDS011;63795;55.684;37.864;2023-05-10T06:44:56;4.40;;;0.40;;
75207;SDS011;63795;55.684;37.864;2023-05-10T06:49:56;4.00;;;0.20;;
75207;SDS011;63795;55.684;37.864;2023-05-10T06:54:57;3.55;;;2.30;;
75207;SDS011;63795;55.684;37.864;2023-05-10T06:59:58;5.15;;;1.02;;
75207;SDS011;63795;55.684;37.864;2023-05-10T07:04:59;3.47;;;2.60;;
75207;SDS011;63795;55.684;37.864;2023-05-10T07:09:59;7.20;;;1.10;;
75207;SDS011;63795;55.684;37.864;2023-05-10T07:15:00;3.28;;;1.65;;
75207;SDS011;63795;55.684;37.864;2023-05-10T07:20:01;3.17;;;1.17;;
75207;SDS011;63795;55.684;37.864;2023-05-10T07:25:01;1.85;;;0.60;;
75207;SDS011;63795;55.684;37.864;2023-05-10T07:30:02;4.22;;;1.48;;
75207;SDS011;63795;55.684;37.864;2023-05-10T07:35:03;6.07;;;1.40;;
75207;SDS011;63795;55.684;37.864;2023-05-10T07:40:04;2.20;;;0.50;;
75207;SDS011;63795;55.684;37.864;2023-05-10T07:45:05;4.72;;;3.45;;
75207;SDS011;63795;55.684;37.864;2023-05-10T07:50:06;1.92;;;1.55;;
75207;SDS011;63795;55.684;37.864;2023-05-10T07:55:07;1.20;;;0.70;;
75207;SDS011;63795;55.684;37.864;2023-05-10T08:00:09;5.07;;;4.57;;
75207;SDS011;63795;55.684;37.864;2023-05-10T08:05:12;3.05;;;0.98;;
75207;SDS011;63795;55.684;37.864;2023-05-10T08:10:13;1.65;;;0.85;;
75207;SDS011;63795;55.684;37.864;2023-05-10T08:15:14;2.08;;;1.35;;
75207;SDS011;63795;55.684;37.864;2023-05-10T08:20:14;5.63;;;2.38;;
75207;SDS011;63795;55.684;37.864;2023-05-10T08:25:18;2.35;;;1.42;;
75207;SDS011;63795;55.684;37.864;2023-05-10T08:30:19;7.22;;;2.20;;
75207;SDS011;63795;55.684;37.864;2023-05-10T08:35:20;6.32;;;0.55;;
75207;SDS011;63795;55.684;37.864;2023-05-10T08:40:20;2.90;;;1.15;;
75207;SDS011;63795;55.684;37.864;2023-05-10T08:45:21;1.05;;;0.73;;
75207;SDS011;63795;55.684;37.864;2023-05-10T08:50:23;6.85;;;3.65;;
75207;SDS011;63795;55.684;37.864;2023-05-10T08:55:25;2.78;;;0.57;;
75207;SDS011;63795;55.684;37.864;2023-05-10T09:00:26;1.40;;;1.02;;
75207;SDS011;63795;55.684;37.864;2023-05-10T09:05:28;3.53;;;0.30;;
75207;SDS011;63795;55.684;37.864;2023-05-10T09:10:28;3.10;;;1.20;;
75207;SDS011;63795;55.684;37.864;2023-05-10T09:15:30;2.08;;;0.65;;
75207;SDS011;63795;55.684;37.864;2023-05-10T09:20:31;1.67;;;0.20;;
75207;SDS011;63795;55.684;37.864;2023-05-10T09:25:31;3.00;;;0.20;;
75207;SDS011;63795;55.684;37.864;2023-05-10T09:30:35;2.67;;;0.38;;
75207;SDS011;63795;55.684;37.864;2023-05-10T09:35:35;1.85;;;0.40;;
75207;SDS011;63795;55.684;37.864;2023-05-10T09:40:37;2.85;;;1.38;;
75207;SDS011;63795;55.684;37.864;2023-05-10T09:45:37;3.53;;;0.88;;
75207;SDS011;63795;55.684;37.864;2023-05-10T09:50:38;1.40;;;0.40;;
75207;SDS011;63795;55.684;37.864;2023-05-10T09:55:39;1.98;;;0.43;;
75207;SDS011;63795;55.684;37.864;2023-05-10T10:00:49;3.30;;;1.27;;
75207;SDS011;63795;55.684;37.864;2023-05-10T10:05:52;2.47;;;1.02;;
75207;SDS011;63795;55.684;37.864;2023-05-10T10:10:53;4.68;;;0.75;;
75207;SDS011;63795;55.684;37.864;2023-05-10T10:15:54;3.28;;;1.58;;
75207;SDS011;63795;55.684;37.864;2023-05-10T10:20:54;3.47;;;2.25;;
75207;SDS011;63795;55.684;37.864;2023-05-10T10:25:56;3.50;;;0.95;;
75207;SDS011;63795;55.684;37.864;2023-05-10T10:30:57;3.47;;;0.90;;
75207;SDS011;63795;55.684;37.864;2023-05-10T10:36:10;2.05;;;1.10;;
75207;SDS011;63795;55.684;37.864;2023-05-10T10:46:31;4.30;;;0.52;;
75207;SDS011;63795;55.684;37.864;2023-05-10T10:51:39;1.98;;;0.52;;
75207;SDS011;63795;55.684;37.864;2023-05-10T10:56:40;3.70;;;0.68;;
75207;SDS011;63795;55.684;37.864;2023-05-10T11:01:41;2.90;;;0.65;;
75207;SDS011;63795;55.684;37.864;2023-05-10T11:06:44;1.58;;;0.57;;
75207;SDS011;63795;55.684;37.864;2023-05-10T11:11:51;1.90;;;0.47;;
75207;SDS011;63795;55.684;37.864;2023-05-10T11:16:55;2.90;;;2.70;;
75207;SDS011;63795;55.684;37.864;2023-05-10T11:27:05;5.32;;;1.02;;
75207;SDS011;63795;55.684;37.864;2023-05-10T11:32:06;2.67;;;0.60;;
75207;SDS011;63795;55.684;37.864;2023-05-10T11:37:08;3.08;;;1.50;;
75207;SDS011;63795;55.684;37.864;2023-05-10T11:42:08;1.97;;;0.40;;
75207;SDS011;63795;55.684;37.864;2023-05-10T11:47:11;1.70;;;0.75;;
75207;SDS011;63795;55.684;37.864;2023-05-10T11:52:12;1.67;;;0.38;;
75207;SDS011;63795;55.684;37.864;2023-05-10T11:57:12;2.58;;;1.05;;
75207;SDS011;63795;55.684;37.864;2023-05-10T12:02:13;2.95;;;0.63;;
75207;SDS011;63795;55.684;37.864;2023-05-10T12:07:14;3.20;;;2.95;;
75207;SDS011;63795;55.684;37.864;2023-05-10T12:12:17;2.65;;;0.43;;
75207;SDS011;63795;55.684;37.864;2023-05-10T12:17:18;3.65;;;1.17;;
75207;SDS011;63795;55.684;37.864;2023-05-10T12:22:20;1.98;;;0.20;;
75207;SDS011;63795;55.684;37.864;2023-05-10T12:27:21;5.20;;;2.45;;
75207;SDS011;63795;55.684;37.864;2023-05-10T12:32:21;2.70;;;0.40;;
75207;SDS011;63795;55.684;37.864;2023-05-10T12:37:37;2.58;;;0.60;;
75207;SDS011;63795;55.684;37.864;2023-05-10T12:42:40;2.05;;;0.45;;
75207;SDS011;63795;55.684;37.864;2023-05-10T12:47:41;6.07;;;1.33;;
75207;SDS011;63795;55.684;37.864;2023-05-10T12:52:41;1.98;;;0.47;;
75207;SDS011;63795;55.684;37.864;2023-05-10T12:57:42;2.65;;;0.98;;
75207;SDS011;63795;55.684;37.864;2023-05-10T13:02:42;5.73;;;0.37;;
75207;SDS011;63795;55.684;37.864;2023-05-10T13:07:43;3.10;;;0.47;;
75207;SDS011;63795;55.684;37.864;2023-05-10T13:12:43;6.15;;;0.73;;
75207;SDS011;63795;55.684;37.864;2023-05-10T13:17:44;2.83;;;0.40;;
75207;SDS011;63795;55.684;37.864;2023-05-10T13:22:45;4.25;;;1.50;;
75207;SDS011;63795;55.684;37.864;2023-05-10T13:27:45;1.50;;;0.30;;
75207;SDS011;63795;55.684;37.864;2023-05-10T13:32:46;2.38;;;0.65;;
75207;SDS011;63795;55.684;37.864;2023-05-10T13:37:46;4.32;;;1.98;;
75207;SDS011;63795;55.684;37.864;2023-05-10T13:42:47;2.38;;;0.20;;
75207;SDS011;63795;55.684;37.864;2023-05-10T13:47:47;6.90;;;0.47;;
75207;SDS011;63795;55.684;37.864;2023-05-10T13:52:48;4.25;;;0.50;;
75207;SDS011;63795;55.684;37.864;2023-05-10T13:57:48;2.92;;;0.80;;
75207;SDS011;63795;55.684;37.864;2023-05-10T14:02:49;2.30;;;0.43;;
75207;SDS011;63795;55.684;37.864;2023-05-10T14:07:50;2.33;;;0.73;;
75207;SDS011;63795;55.684;37.864;2023-05-10T14:12:50;3.92;;;0.10;;
75207;SDS011;63795;55.684;37.864;2023-05-10T14:17:51;1.95;;;1.17;;
75207;SDS011;63795;55.684;37.864;2023-05-10T14:22:52;3.08;;;0.82;;
75207;SDS011;63795;55.684;37.864;2023-05-10T14:27:52;2.10;;;0.77;;
75207;SDS011;63795;55.684;37.864;2023-05-10T14:32:54;1.83;;;0.40;;
75207;SDS011;63795;55.684;37.864;2023-05-10T14:37:55;3.03;;;0.52;;
75207;SDS011;63795;55.684;37.864;2023-05-10T14:42:55;3.22;;;1.02;;
75207;SDS011;63795;55.684;37.864;2023-05-10T14:47:56;3.70;;;0.68;;
75207;SDS011;63795;55.684;37.864;2023-05-10T14:58:38;4.50;;;1.95;;
75207;SDS011;63795;55.684;37.864;2023-05-10T15:03:39;3.00;;;1.27;;
75207;SDS011;63795;55.684;37.864;2023-05-10T15:08:40;3.42;;;1.23;;
75207;SDS011;63795;55.684;37.864;2023-05-10T15:13:41;3.75;;;1.20;;
75207;SDS011;63795;55.684;37.864;2023-05-10T15:18:41;2.30;;;1.00;;
75207;SDS011;63795;55.684;37.864;2023-05-10T15:23:42;3.03;;;0.93;;
75207;SDS011;63795;55.684;37.864;2023-05-10T15:28:42;4.10;;;0.68;;
75207;SDS011;63795;55.684;37.864;2023-05-10T15:33:43;4.65;;;1.42;;
75207;SDS011;63795;55.684;37.864;2023-05-10T15:38:44;3.73;;;0.93;;
75207;SDS011;63795;55.684;37.864;2023-05-10T15:43:44;6.82;;;1.10;;
75207;SDS011;63795;55.684;37.864;2023-05-10T15:48:44;4.10;;;0.35;;
75207;SDS011;63795;55.684;37.864;2023-05-10T15:53:45;2.30;;;1.45;;
75207;SDS011;63795;55.684;37.864;2023-05-10T15:58:46;5.10;;;0.70;;
75207;SDS011;63795;55.684;37.864;2023-05-10T16:03:46;5.53;;;0.73;;
75207;SDS011;63795;55.684;37.864;2023-05-10T16:08:47;4.70;;;0.30;;
75207;SDS011;63795;55.684;37.864;2023-05-10T16:13:47;2.70;;;0.65;;
75207;SDS011;63795;55.684;37.864;2023-05-10T16:18:48;3.13;;;1.27;;
75207;SDS011;63795;55.684;37.864;2023-05-10T16:23:48;2.13;;;0.67;;
75207;SDS011;63795;55.684;37.864;2023-05-10T16:28:49;5.00;;;1.38;;
75207;SDS011;63795;55.684;37.864;2023-05-10T16:33:49;4.43;;;0.75;;
75207;SDS011;63795;55.684;37.864;2023-05-10T16:38:50;4.30;;;1.70;;
75207;SDS011;63795;55.684;37.864;2023-05-10T16:43:50;3.40;;;0.80;;
75207;SDS011;63795;55.684;37.864;2023-05-10T16:48:51;2.35;;;0.65;;
75207;SDS011;63795;55.684;37.864;2023-05-10T16:53:52;6.05;;;2.25;;
75207;SDS011;63795;55.684;37.864;2023-05-10T16:58:52;2.47;;;0.88;;
75207;SDS011;63795;55.684;37.864;2023-05-10T17:03:53;4.53;;;0.95;;
75207;SDS011;63795;55.684;37.864;2023-05-10T17:08:53;7.03;;;3.05;;
75207;SDS011;63795;55.684;37.864;2023-05-10T17:13:54;3.83;;;1.67;;
75207;SDS011;63795;55.684;37.864;2023-05-10T17:18:54;5.33;;;1.20;;
75207;SDS011;63795;55.684;37.864;2023-05-10T17:23:55;2.60;;;0.57;;
75207;SDS011;63795;55.684;37.864;2023-05-10T17:28:56;5.60;;;1.20;;
75207;SDS011;63795;55.684;37.864;2023-05-10T17:33:57;3.80;;;1.25;;
75207;SDS011;63795;55.684;37.864;2023-05-10T17:38:58;6.43;;;1.55;;
75207;SDS011;63795;55.684;37.864;2023-05-10T17:43:58;8.13;;;1.42;;
75207;SDS011;63795;55.684;37.864;2023-05-10T17:48:59;5.53;;;1.33;;
75207;SDS011;63795;55.684;37.864;2023-05-10T17:53:59;10.10;;;2.00;;
75207;SDS011;63795;55.684;37.864;2023-05-10T17:59:01;7.30;;;2.15;;
75207;SDS011;63795;55.684;37.864;2023-05-10T18:04:02;16.63;;;4.45;;
75207;SDS011;63795;55.684;37.864;2023-05-10T18:09:04;12.80;;;5.22;;
75207;SDS011;63795;55.684;37.864;2023-05-10T18:14:06;18.23;;;5.30;;
75207;SDS011;63795;55.684;37.864;2023-05-10T18:19:06;8.93;;;1.50;;
75207;SDS011;63795;55.684;37.864;2023-05-10T18:24:07;11.90;;;4.00;;
75207;SDS011;63795;55.684;37.864;2023-05-10T18:29:07;11.15;;;1.50;;
75207;SDS011;63795;55.684;37.864;2023-05-10T18:34:08;7.50;;;1.73;;
75207;SDS011;63795;55.684;37.864;2023-05-10T18:39:12;10.32;;;3.17;;
75207;SDS011;63795;55.684;37.864;2023-05-10T18:44:13;7.93;;;2.42;;
75207;SDS011;63795;55.684;37.864;2023-05-10T18:49:13;8.23;;;2.97;;
75207;SDS011;63795;55.684;37.864;2023-05-10T18:54:14;8.10;;;2.83;;
75207;SDS011;63795;55.684;37.864;2023-05-10T18:59:14;7.82;;;3.53;;
75207;SDS011;63795;55.684;37.864;2023-05-10T19:04:15;11.13;;;3.35;;
75207;SDS011;63795;55.684;37.864;2023-05-10T19:09:16;12.03;;;4.03;;
75207;SDS011;63795;55.684;37.864;2023-05-10T19:14:22;9.18;;;2.75;;
75207;SDS011;63795;55.684;37.864;2023-05-10T19:19:26;11.65;;;2.65;;
75207;SDS011;63795;55.684;37.864;2023-05-10T19:24:36;10.73;;;3.60;;
75207;SDS011;63795;55.684;37.864;2023-05-10T19:29:37;19.52;;;4.05;;
75207;SDS011;63795;55.684;37.864;2023-05-10T19:34:38;14.93;;;4.35;;
75207;SDS011;63795;55.684;37.864;2023-05-10T19:39:41;14.07;;;4.05;;
75207;SDS011;63795;55.684;37.864;2023-05-10T19:44:41;18.73;;;5.70;;
75207;SDS011;63795;55.684;37.864;2023-05-10T19:49:42;20.95;;;4.60;;
75207;SDS011;63795;55.684;37.864;2023-05-10T19:54:42;17.50;;;5.20;;
75207;SDS011;63795;55.684;37.864;2023-05-10T19:59:43;18.60;;;4.18;;
75207;SDS011;63795;55.684;37.864;2023-05-10T20:04:44;25.02;;;5.70;;
75207;SDS011;63795;55.684;37.864;2023-05-10T20:09:44;20.63;;;6.18;;
75207;SDS011;63795;55.684;37.864;2023-05-10T20:14:45;14.15;;;7.03;;
75207;SDS011;63795;55.684;37.864;2023-05-10T20:19:45;8.50;;;3.97;;
75207;SDS011;63795;55.684;37.864;2023-05-10T20:24:46;14.43;;;5.03;;
75207;SDS011;63795;55.684;37.864;2023-05-10T20:29:47;14.35;;;5.60;;
75207;SDS011;63795;55.684;37.864;2023-05-10T20:34:47;16.00;;;4.60;;
75207;SDS011;63795;55.684;37.864;2023-05-10T20:39:48;11.15;;;4.28;;
75207;SDS011;63795;55.684;37.864;2023-05-10T20:44:49;18.83;;;5.35;;
75207;SDS011;63795;55.684;37.864;2023-05-10T20:49:49;17.48;;;5.70;;
75207;SDS011;63795;55.684;37.864;2023-05-10T20:54:50;13.60;;;5.43;;
75207;SDS011;63795;55.684;37.864;2023-05-10T20:59:51;16.58;;;5.85;;
75207;SDS011;63795;55.684;37.864;2023-05-10T21:04:51;15.48;;;7.93;;
75207;SDS011;63795;55.684;37.864;2023-05-10T21:09:52;16.13;;;4.72;;
75207;SDS011;63795;55.684;37.864;2023-05-10T21:14:52;13.50;;;4.73;;
75207;SDS011;63795;55.684;37.864;2023-05-10T21:19:53;31.80;;;6.35;;
75207;SDS011;63795;55.684;37.864;2023-05-10T21:24:53;22.27;;;7.47;;
75207;SDS011;63795;55.684;37.864;2023-05-10T21:29:54;23.85;;;12.30;;
75207;SDS011;63795;55.684;37.864;2023-05-10T21:34:54;16.02;;;5.65;;
75207;SDS011;63795;55.684;37.864;2023-05-10T21:39:55;20.63;;;10.07;;
75207;SDS011;63795;55.684;37.864;2023-05-10T21:44:55;19.38;;;6.88;;
75207;SDS011;63795;55.684;37.864;2023-05-10T21:49:56;6.93;;;2.47;;
75207;SDS011;63795;55.684;37.864;2023-05-10T21:54:59;7.00;;;2.77;;
75207;SDS011;63795;55.684;37.864;2023-05-10T21:59:59;8.68;;;5.28;;
75207;SDS011;63795;55.684;37.864;2023-05-10T22:05:00;14.17;;;3.53;;
75207;SDS011;63795;55.684;37.864;2023-05-10T22:10:02;10.38;;;2.75;;
75207;SDS011;63795;55.684;37.864;2023-05-10T22:15:02;12.75;;;3.80;;
75207;SDS011;63795;55.684;37.864;2023-05-10T22:20:04;11.02;;;3.25;;
75207;SDS011;63795;55.684;37.864;2023-05-10T22:25:07;5.78;;;1.27;;
75207;SDS011;63795;55.684;37.864;2023-05-10T22:30:08;10.20;;;2.58;;
75207;SDS011;63795;55.684;37.864;2023-05-10T22:35:08;9.60;;;2.80;;
75207;SDS011;63795;55.684;37.864;2023-05-10T22:40:09;8.10;;;2.70;;
75207;SDS011;63795;55.684;37.864;2023-05-10T22:45:10;12.02;;;2.47;;
75207;SDS011;63795;55.684;37.864;2023-05-10T22:50:11;11.60;;;2.55;;
75207;SDS011;63795;55.684;37.864;2023-05-10T22:55:13;9.38;;;1.90;;
75207;SDS011;63795;55.684;37.864;2023-05-10T23:00:14;11.57;;;2.90;;
75207;SDS011;63795;55.684;37.864;2023-05-10T23:05:14;11.75;;;2.40;;
75207;SDS011;63795;55.684;37.864;2023-05-10T23:10:16;11.95;;;4.05;;
75207;SDS011;63795;55.684;37.864;2023-05-10T23:15:16;8.10;;;3.55;;
75207;SDS011;63795;55.684;37.864;2023-05-10T23:20:17;10.95;;;3.40;;
75207;SDS011;63795;55.684;37.864;2023-05-10T23:25:17;12.02;;;4.43;;
75207;SDS011;63795;55.684;37.864;2023-05-10T23:30:18;16.02;;;2.70;;
75207;SDS011;63795;55.684;37.864;2023-05-10T23:35:18;12.30;;;2.77;;
75207;SDS011;63795;55.684;37.864;2023-05-10T23:40:19;16.05;;;3.88;;
75207;SDS011;63795;55.684;37.864;2023-05-10T23:45:19;11.50;;;2.72;;
75207;SDS011;63795;55.684;37.864;2023-05-10T23:50:20;8.50;;;2.40;;
75207;SDS011;63795;55.684;37.864;2023-05-10T23:55:20;11.75;;;2.05;;
